createdAt,value
2018-06-19T00:00:26.707Z,21.83
2018-06-19T00:01:26.519Z,21.83
2018-06-19T00:02:26.866Z,21.83
2018-06-19T00:03:26.607Z,21.82
2018-06-19T00:04:26.623Z,21.84
2018-06-19T00:05:26.637Z,21.83
2018-06-19T00:06:26.644Z,21.82
2018-06-19T00:07:26.525Z,21.83
2018-06-19T00:08:26.508Z,21.84
2018-06-19T00:09:26.608Z,21.83
2018-06-19T00:10:26.742Z,21.82
2018-06-19T00:11:26.581Z,21.81
2018-06-19T00:12:26.581Z,21.83
2018-06-19T00:13:26.666Z,21.82
2018-06-19T00:14:26.705Z,21.82
2018-06-19T00:15:26.522Z,21.81
2018-06-19T00:16:26.600Z,21.81
2018-06-19T00:17:26.735Z,21.82
2018-06-19T00:18:26.699Z,21.83
2018-06-19T00:19:26.519Z,21.8
2018-06-19T00:20:26.541Z,21.84
2018-06-19T00:21:26.445Z,21.82
2018-06-19T00:22:26.722Z,21.81
2018-06-19T00:23:26.666Z,21.82
2018-06-19T00:24:26.501Z,21.82
2018-06-19T00:25:26.737Z,21.82
2018-06-19T00:26:26.709Z,21.81
2018-06-19T00:27:27.017Z,21.82
2018-06-19T00:28:26.717Z,21.81
2018-06-19T00:29:26.565Z,21.82
2018-06-19T00:30:26.461Z,21.81
2018-06-19T00:31:26.556Z,21.81
2018-06-19T00:32:26.478Z,21.8
2018-06-19T00:33:26.436Z,21.81
2018-06-19T00:34:26.665Z,21.83
2018-06-19T00:35:26.609Z,21.83
2018-06-19T00:36:26.541Z,21.8
2018-06-19T00:37:26.445Z,21.81
2018-06-19T00:38:26.628Z,21.8
2018-06-19T00:39:26.579Z,21.82
2018-06-19T00:40:26.726Z,21.8
2018-06-19T00:41:26.561Z,21.81
2018-06-19T00:42:26.482Z,21.81
2018-06-19T00:43:26.681Z,21.82
2018-06-19T00:44:26.655Z,21.82
2018-06-19T00:45:26.647Z,21.8
2018-06-19T00:46:26.494Z,21.8
2018-06-19T00:47:26.545Z,21.83
2018-06-19T00:48:26.600Z,21.81
2018-06-19T00:49:26.617Z,21.8
2018-06-19T00:50:26.482Z,21.83
2018-06-19T00:51:26.398Z,21.81
2018-06-19T00:52:26.573Z,21.82
2018-06-19T00:53:26.620Z,21.83
2018-06-19T00:54:26.482Z,21.81
2018-06-19T00:55:26.667Z,21.81
2018-06-19T00:56:26.970Z,21.82
2018-06-19T00:57:26.631Z,21.82
2018-06-19T00:58:26.491Z,21.8
2018-06-19T00:59:26.566Z,21.81
2018-06-19T01:00:26.478Z,21.81
2018-06-19T01:01:26.648Z,21.81
2018-06-19T01:02:26.642Z,21.83
2018-06-19T01:03:26.491Z,21.82
2018-06-19T01:04:26.595Z,21.8
2018-06-19T01:05:26.529Z,21.82
2018-06-19T01:06:26.570Z,21.8
2018-06-19T01:07:26.632Z,21.8
2018-06-19T01:08:26.945Z,21.82
2018-06-19T01:09:44.455Z,21.79
2018-06-19T01:10:26.590Z,21.79
2018-06-19T01:11:26.508Z,21.8
2018-06-19T01:12:26.458Z,21.8
2018-06-19T01:13:26.767Z,21.8
2018-06-19T01:14:26.495Z,21.8
2018-06-19T01:15:26.612Z,21.81
2018-06-19T01:16:26.490Z,21.79
2018-06-19T01:17:26.902Z,21.8
2018-06-19T01:18:26.759Z,21.83
2018-06-19T01:19:26.437Z,21.8
2018-06-19T01:20:26.724Z,21.81
2018-06-19T01:21:36.615Z,21.8
2018-06-19T01:22:26.657Z,21.8
2018-06-19T01:23:26.695Z,21.8
2018-06-19T01:24:26.549Z,21.79
2018-06-19T01:25:26.692Z,21.78
2018-06-19T01:26:26.985Z,21.79
2018-06-19T01:27:26.487Z,21.82
2018-06-19T01:28:26.489Z,21.8
2018-06-19T01:29:26.612Z,21.78
2018-06-19T01:30:26.531Z,21.82
2018-06-19T01:31:26.716Z,21.79
2018-06-19T01:32:26.685Z,21.8
2018-06-19T01:33:26.480Z,21.81
2018-06-19T01:34:26.567Z,21.8
2018-06-19T01:35:26.820Z,21.8
2018-06-19T01:36:26.582Z,21.8
2018-06-19T01:37:26.605Z,21.8
2018-06-19T01:38:26.608Z,21.8
2018-06-19T01:39:26.750Z,21.8
2018-06-19T01:40:26.549Z,21.78
2018-06-19T01:41:26.683Z,21.8
2018-06-19T01:42:26.612Z,21.8
2018-06-19T01:43:26.904Z,21.8
2018-06-19T01:44:26.704Z,21.8
2018-06-19T01:45:26.458Z,21.78
2018-06-19T01:46:26.504Z,21.8
2018-06-19T01:47:26.518Z,21.8
2018-06-19T01:48:26.541Z,21.8
2018-06-19T01:49:26.693Z,21.8
2018-06-19T01:50:26.389Z,21.8
2018-06-19T01:51:26.751Z,21.82
2018-06-19T01:52:26.586Z,21.8
2018-06-19T01:53:26.386Z,21.78
2018-06-19T01:54:26.507Z,21.8
2018-06-19T01:55:26.421Z,21.78
2018-06-19T01:56:26.642Z,21.77
2018-06-19T01:57:26.657Z,21.78
2018-06-19T01:58:26.634Z,21.8
2018-06-19T01:59:26.602Z,21.77
2018-06-19T02:00:26.507Z,21.8
2018-06-19T02:01:26.827Z,21.78
2018-06-19T02:02:26.379Z,21.8
2018-06-19T02:03:26.627Z,21.8
2018-06-19T02:04:26.478Z,21.79
2018-06-19T02:05:26.582Z,21.78
2018-06-19T02:06:26.427Z,21.79
2018-06-19T02:07:26.653Z,21.8
2018-06-19T02:08:26.576Z,21.8
2018-06-19T02:09:26.661Z,21.8
2018-06-19T02:10:26.552Z,21.79
2018-06-19T02:11:26.487Z,21.78
2018-06-19T02:12:26.562Z,21.8
2018-06-19T02:13:26.496Z,21.78
2018-06-19T02:14:26.709Z,21.77
2018-06-19T02:15:26.484Z,21.77
2018-06-19T02:16:26.568Z,21.78
2018-06-19T02:17:26.522Z,21.79
2018-06-19T02:18:26.437Z,21.8
2018-06-19T02:19:26.464Z,21.8
2018-06-19T02:20:26.651Z,21.79
2018-06-19T02:21:26.736Z,21.8
2018-06-19T02:22:26.634Z,21.77
2018-06-19T02:23:26.497Z,21.77
2018-06-19T02:24:26.935Z,21.78
2018-06-19T02:25:26.638Z,21.78
2018-06-19T02:26:26.624Z,21.78
2018-06-19T02:27:26.463Z,21.79
2018-06-19T02:28:26.646Z,21.79
2018-06-19T02:29:26.456Z,21.78
2018-06-19T02:30:26.386Z,21.77
2018-06-19T02:31:26.516Z,21.79
2018-06-19T02:32:26.704Z,21.78
2018-06-19T02:33:26.886Z,21.8
2018-06-19T02:34:26.463Z,21.77
2018-06-19T02:35:26.400Z,21.77
2018-06-19T02:36:26.604Z,21.79
2018-06-19T02:37:26.549Z,21.76
2018-06-19T02:38:26.526Z,21.79
2018-06-19T02:39:26.450Z,21.8
2018-06-19T02:40:26.550Z,21.8
2018-06-19T02:41:26.755Z,21.79
2018-06-19T02:42:26.499Z,21.77
2018-06-19T02:43:26.678Z,21.77
2018-06-19T02:44:26.704Z,21.77
2018-06-19T02:45:26.462Z,21.78
2018-06-19T02:46:26.518Z,21.78
2018-06-19T02:47:26.419Z,21.77
2018-06-19T02:48:26.536Z,21.78
2018-06-19T02:49:26.576Z,21.77
2018-06-19T02:50:26.746Z,21.79
2018-06-19T02:51:26.554Z,21.79
2018-06-19T02:52:26.562Z,21.75
2018-06-19T02:53:26.658Z,21.77
2018-06-19T02:54:26.571Z,21.78
2018-06-19T02:55:26.473Z,21.77
2018-06-19T02:56:26.561Z,21.77
2018-06-19T02:57:26.583Z,21.77
2018-06-19T02:58:26.690Z,21.78
2018-06-19T02:59:26.503Z,21.77
2018-06-19T03:00:26.956Z,21.78
2018-06-19T03:01:26.533Z,21.75
2018-06-19T03:02:26.591Z,21.77
2018-06-19T03:03:26.531Z,21.77
2018-06-19T03:04:26.705Z,21.75
2018-06-19T03:05:26.321Z,21.77
2018-06-19T03:06:26.587Z,21.79
2018-06-19T03:07:26.698Z,21.75
2018-06-19T03:08:26.493Z,21.79
2018-06-19T03:09:26.538Z,21.76
2018-06-19T03:10:26.493Z,21.75
2018-06-19T03:11:26.619Z,21.77
2018-06-19T03:12:26.565Z,21.77
2018-06-19T03:13:26.493Z,21.77
2018-06-19T03:14:26.423Z,21.77
2018-06-19T03:15:26.665Z,21.78
2018-06-19T03:16:26.694Z,21.74
2018-06-19T03:17:26.592Z,21.76
2018-06-19T03:18:26.653Z,21.77
2018-06-19T03:19:26.388Z,21.75
2018-06-19T03:20:26.624Z,21.77
2018-06-19T03:21:26.494Z,21.77
2018-06-19T03:22:26.533Z,21.77
2018-06-19T03:23:26.400Z,21.76
2018-06-19T03:24:26.657Z,21.77
2018-06-19T03:25:26.443Z,21.76
2018-06-19T03:26:26.558Z,21.76
2018-06-19T03:27:26.576Z,21.78
2018-06-19T03:28:26.532Z,21.77
2018-06-19T03:29:26.599Z,21.76
2018-06-19T03:30:27.094Z,21.75
2018-06-19T03:31:26.550Z,21.77
2018-06-19T03:32:26.465Z,21.76
2018-06-19T03:33:26.599Z,21.77
2018-06-19T03:34:26.463Z,21.75
2018-06-19T03:35:26.466Z,21.76
2018-06-19T03:36:26.710Z,21.77
2018-06-19T03:37:26.746Z,21.75
2018-06-19T03:38:26.511Z,21.76
2018-06-19T03:39:26.441Z,21.75
2018-06-19T03:40:26.516Z,21.74
2018-06-19T03:41:26.401Z,21.76
2018-06-19T03:42:26.739Z,21.76
2018-06-19T03:43:26.568Z,21.75
2018-06-19T03:44:26.758Z,21.77
2018-06-19T03:45:26.663Z,21.77
2018-06-19T03:46:26.543Z,21.75
2018-06-19T03:47:26.500Z,21.76
2018-06-19T03:48:26.523Z,21.76
2018-06-19T03:49:26.497Z,21.74
2018-06-19T03:50:26.565Z,21.75
2018-06-19T03:51:26.726Z,21.77
2018-06-19T03:52:26.615Z,21.74
2018-06-19T03:53:26.670Z,21.75
2018-06-19T03:54:26.651Z,21.77
2018-06-19T03:55:26.484Z,21.75
2018-06-19T03:56:26.473Z,21.75
2018-06-19T03:57:26.809Z,21.76
2018-06-19T03:58:26.909Z,21.73
2018-06-19T03:59:26.391Z,21.74
2018-06-19T04:00:26.665Z,21.75
2018-06-19T04:01:36.706Z,21.74
2018-06-19T04:02:26.503Z,21.76
2018-06-19T04:03:26.559Z,21.75
2018-06-19T04:04:26.373Z,21.74
2018-06-19T04:05:26.434Z,21.74
2018-06-19T04:06:26.417Z,21.75
2018-06-19T04:07:26.602Z,21.74
2018-06-19T04:08:26.478Z,21.74
2018-06-19T04:09:26.642Z,21.74
2018-06-19T04:10:26.600Z,21.74
2018-06-19T04:11:26.585Z,21.75
2018-06-19T04:12:26.621Z,21.74
2018-06-19T04:13:26.378Z,21.75
2018-06-19T04:14:26.377Z,21.75
2018-06-19T04:15:26.637Z,21.74
2018-06-19T04:16:26.432Z,21.72
2018-06-19T04:17:26.436Z,21.75
2018-06-19T04:18:26.634Z,21.74
2018-06-19T04:19:26.653Z,21.73
2018-06-19T04:20:26.523Z,21.73
2018-06-19T04:21:26.411Z,21.74
2018-06-19T04:22:26.530Z,21.74
2018-06-19T04:23:26.452Z,21.74
2018-06-19T04:24:26.618Z,21.74
2018-06-19T04:25:26.579Z,21.73
2018-06-19T04:26:26.556Z,21.74
2018-06-19T04:27:26.595Z,21.74
2018-06-19T04:28:26.413Z,21.72
2018-06-19T04:29:26.416Z,21.73
2018-06-19T04:30:26.409Z,21.73
2018-06-19T04:31:26.386Z,21.73
2018-06-19T04:32:26.535Z,21.74
2018-06-19T04:33:26.895Z,21.7
2018-06-19T04:34:26.433Z,21.7
2018-06-19T04:35:26.633Z,21.74
2018-06-19T04:36:26.625Z,21.73
2018-06-19T04:37:26.490Z,21.72
2018-06-19T04:38:26.536Z,21.73
2018-06-19T04:39:26.622Z,21.74
2018-06-19T04:40:26.604Z,21.72
2018-06-19T04:41:26.647Z,21.72
2018-06-19T04:42:26.464Z,21.72
2018-06-19T04:43:26.629Z,21.7
2018-06-19T04:44:26.522Z,21.73
2018-06-19T04:45:26.542Z,21.72
2018-06-19T04:46:26.519Z,21.73
2018-06-19T04:47:26.509Z,21.73
2018-06-19T04:48:26.509Z,21.74
2018-06-19T04:49:26.751Z,21.72
2018-06-19T04:50:26.444Z,21.74
2018-06-19T04:51:26.367Z,21.74
2018-06-19T04:52:26.458Z,21.72
2018-06-19T04:53:26.440Z,21.72
2018-06-19T04:54:26.394Z,21.72
2018-06-19T04:55:26.428Z,21.73
2018-06-19T04:56:26.612Z,21.74
2018-06-19T04:57:26.725Z,21.73
2018-06-19T04:58:26.609Z,21.72
2018-06-19T04:59:26.529Z,21.72
2018-06-19T05:00:26.354Z,21.72
2018-06-19T05:01:26.363Z,21.73
2018-06-19T05:02:26.485Z,21.7
2018-06-19T05:03:26.966Z,21.7
2018-06-19T05:04:26.357Z,21.7
2018-06-19T05:05:26.573Z,21.72
2018-06-19T05:06:26.608Z,21.72
2018-06-19T05:07:26.520Z,21.72
2018-06-19T05:08:26.427Z,21.72
2018-06-19T05:09:26.427Z,21.7
2018-06-19T05:10:26.487Z,21.7
2018-06-19T05:11:26.725Z,21.7
2018-06-19T05:12:26.470Z,21.7
2018-06-19T05:13:26.484Z,21.7
2018-06-19T05:14:26.547Z,21.73
2018-06-19T05:15:26.474Z,21.72
2018-06-19T05:16:26.544Z,21.7
2018-06-19T05:17:26.520Z,21.72
2018-06-19T05:18:26.400Z,21.74
2018-06-19T05:19:26.531Z,21.72
2018-06-19T05:20:26.432Z,21.73
2018-06-19T05:21:26.476Z,21.73
2018-06-19T05:22:26.547Z,21.74
2018-06-19T05:23:26.346Z,21.7
2018-06-19T05:24:26.396Z,21.72
2018-06-19T05:25:26.622Z,21.7
2018-06-19T05:26:26.575Z,21.72
2018-06-19T05:27:26.352Z,21.7
2018-06-19T05:28:26.564Z,21.68
2018-06-19T05:29:26.587Z,21.72
2018-06-19T05:30:26.735Z,21.7
2018-06-19T05:31:26.371Z,21.73
2018-06-19T05:32:26.742Z,21.7
2018-06-19T05:33:26.456Z,21.7
2018-06-19T05:34:26.602Z,21.72
2018-06-19T05:35:26.601Z,21.73
2018-06-19T05:36:26.489Z,21.73
2018-06-19T05:37:26.366Z,21.69
2018-06-19T05:38:26.436Z,21.7
2018-06-19T05:39:26.514Z,21.73
2018-06-19T05:40:26.537Z,21.68
2018-06-19T05:41:26.594Z,21.72
2018-06-19T05:42:26.423Z,21.7
2018-06-19T05:43:26.428Z,21.7
2018-06-19T05:44:26.485Z,21.72
2018-06-19T05:45:26.363Z,21.73
2018-06-19T05:46:26.508Z,21.74
2018-06-19T05:47:26.420Z,21.72
2018-06-19T05:48:26.466Z,21.74
2018-06-19T05:49:26.481Z,21.72
2018-06-19T05:50:26.470Z,21.72
2018-06-19T05:51:26.646Z,21.72
2018-06-19T05:52:26.534Z,21.7
2018-06-19T05:53:26.403Z,21.72
2018-06-19T05:54:26.430Z,21.69
2018-06-19T05:55:26.526Z,21.7
2018-06-19T05:56:26.532Z,21.72
2018-06-19T05:57:26.759Z,21.7
2018-06-19T05:58:26.324Z,21.72
2018-06-19T05:59:26.531Z,21.72
2018-06-19T06:00:27.647Z,21.72
2018-06-19T06:01:26.498Z,21.7
2018-06-19T06:02:26.540Z,21.7
2018-06-19T06:03:26.460Z,21.72
2018-06-19T06:04:26.598Z,21.7
2018-06-19T06:05:26.528Z,21.72
2018-06-19T06:06:26.620Z,21.72
2018-06-19T06:07:26.514Z,21.72
2018-06-19T06:08:26.751Z,21.7
2018-06-19T06:09:26.475Z,21.73
2018-06-19T06:10:26.804Z,21.69
2018-06-19T06:11:26.554Z,21.73
2018-06-19T06:12:26.393Z,21.73
2018-06-19T06:13:26.721Z,21.69
2018-06-19T06:14:26.545Z,21.69
2018-06-19T06:15:26.527Z,21.69
2018-06-19T06:16:27.041Z,21.7
2018-06-19T06:17:26.683Z,21.7
2018-06-19T06:18:26.716Z,21.7
2018-06-19T06:19:26.597Z,21.7
2018-06-19T06:20:26.469Z,21.7
2018-06-19T06:21:26.608Z,21.73
2018-06-19T06:22:26.641Z,21.7
2018-06-19T06:23:26.667Z,21.73
2018-06-19T06:24:26.579Z,21.76
2018-06-19T06:25:26.605Z,21.75
2018-06-19T06:26:26.422Z,21.75
2018-06-19T06:27:26.650Z,21.73
2018-06-19T06:28:26.502Z,21.74
2018-06-19T06:29:26.332Z,21.72
2018-06-19T06:30:26.459Z,21.72
2018-06-19T06:31:27.452Z,21.73
2018-06-19T06:32:26.361Z,21.72
2018-06-19T06:33:26.538Z,21.73
2018-06-19T06:34:26.480Z,21.73
2018-06-19T06:35:26.544Z,21.74
2018-06-19T06:36:26.530Z,21.73
2018-06-19T06:37:26.676Z,21.73
2018-06-19T06:38:26.415Z,21.72
2018-06-19T06:39:26.494Z,21.7
2018-06-19T06:40:26.565Z,21.73
2018-06-19T06:41:26.706Z,21.74
2018-06-19T06:42:26.785Z,21.73
2018-06-19T06:43:26.593Z,21.73
2018-06-19T06:44:26.429Z,21.69
2018-06-19T06:45:26.739Z,21.7
2018-06-19T06:46:26.688Z,21.74
2018-06-19T06:47:26.373Z,21.7
2018-06-19T06:48:26.453Z,21.74
2018-06-19T06:49:26.572Z,21.73
2018-06-19T06:50:27.427Z,21.73
2018-06-19T06:51:26.624Z,21.73
2018-06-19T06:52:26.483Z,21.73
2018-06-19T06:53:26.600Z,21.7
2018-06-19T06:54:26.453Z,21.74
2018-06-19T06:55:26.541Z,21.7
2018-06-19T06:56:26.512Z,21.73
2018-06-19T06:57:26.330Z,21.7
2018-06-19T06:58:26.498Z,21.73
2018-06-19T06:59:26.562Z,21.72
2018-06-19T07:00:26.550Z,21.72
2018-06-19T07:01:26.550Z,21.69
2018-06-19T07:02:26.338Z,21.7
2018-06-19T07:03:26.594Z,21.72
2018-06-19T07:04:26.431Z,21.73
2018-06-19T07:05:26.409Z,21.7
2018-06-19T07:06:26.345Z,21.72
2018-06-19T07:07:26.656Z,21.7
2018-06-19T07:08:26.554Z,21.72
2018-06-19T07:09:26.501Z,21.74
2018-06-19T07:10:26.436Z,21.72
2018-06-19T07:11:26.465Z,21.72
2018-06-19T07:12:26.591Z,21.74
2018-06-19T07:13:26.852Z,21.72
2018-06-19T07:14:26.548Z,21.74
2018-06-19T07:15:26.398Z,21.74
2018-06-19T07:16:26.705Z,21.69
2018-06-19T07:17:26.352Z,21.73
2018-06-19T07:18:26.432Z,21.73
2018-06-19T07:19:26.809Z,21.69
2018-06-19T07:20:26.692Z,21.73
2018-06-19T07:21:26.470Z,21.7
2018-06-19T07:22:26.797Z,21.7
2018-06-19T07:23:26.558Z,21.72
2018-06-19T07:24:26.550Z,21.74
2018-06-19T07:25:26.424Z,21.7
2018-06-19T07:26:26.467Z,21.7
2018-06-19T07:27:26.506Z,21.7
2018-06-19T07:28:26.464Z,21.7
2018-06-19T07:29:26.433Z,21.72
2018-06-19T07:30:26.547Z,21.7
2018-06-19T07:31:26.313Z,21.7
2018-06-19T07:32:26.459Z,21.7
2018-06-19T07:33:26.508Z,21.7
2018-06-19T07:34:26.572Z,21.69
2018-06-19T07:35:26.341Z,21.72
2018-06-19T07:36:26.451Z,21.7
2018-06-19T07:37:26.577Z,21.7
2018-06-19T07:38:27.192Z,21.72
2018-06-19T07:39:26.739Z,21.7
2018-06-19T07:40:26.568Z,21.69
2018-06-19T07:41:26.619Z,21.7
2018-06-19T07:42:26.531Z,21.72
2018-06-19T07:43:26.678Z,21.7
2018-06-19T07:44:26.409Z,21.72
2018-06-19T07:45:26.364Z,21.7
2018-06-19T07:46:26.636Z,21.72
2018-06-19T07:47:26.422Z,21.69
2018-06-19T07:48:26.616Z,21.7
2018-06-19T07:49:26.760Z,21.7
2018-06-19T07:50:26.521Z,21.69
2018-06-19T07:51:26.607Z,21.72
2018-06-19T07:52:26.755Z,21.69
2018-06-19T07:53:26.790Z,21.69
2018-06-19T07:54:26.950Z,21.7
2018-06-19T07:55:27.009Z,21.68
2018-06-19T07:56:26.799Z,21.7
2018-06-19T07:57:26.699Z,21.72
2018-06-19T07:58:26.504Z,21.68
2018-06-19T07:59:26.447Z,21.7
2018-06-19T08:00:26.353Z,21.7
2018-06-19T08:01:26.480Z,21.69
2018-06-19T08:02:26.365Z,21.72
2018-06-19T08:03:26.480Z,21.72
2018-06-19T08:04:26.562Z,21.7
2018-06-19T08:05:26.394Z,21.72
2018-06-19T08:06:26.641Z,21.7
2018-06-19T08:07:26.529Z,21.69
2018-06-19T08:08:26.427Z,21.7
2018-06-19T08:09:26.652Z,21.7
2018-06-19T08:10:26.574Z,21.7
2018-06-19T08:11:26.321Z,21.72
2018-06-19T08:12:26.498Z,21.72
2018-06-19T08:13:26.827Z,21.7
2018-06-19T08:14:26.428Z,21.7
2018-06-19T08:15:26.570Z,21.7
2018-06-19T08:16:26.547Z,21.72
2018-06-19T08:17:26.592Z,21.7
2018-06-19T08:18:26.508Z,21.7
2018-06-19T08:19:26.438Z,21.69
2018-06-19T08:20:26.379Z,21.7
2018-06-19T08:21:26.515Z,21.7
2018-06-19T08:22:26.449Z,21.69
2018-06-19T08:23:26.557Z,21.7
2018-06-19T08:24:26.578Z,21.73
2018-06-19T08:25:26.686Z,21.69
2018-06-19T08:26:26.549Z,21.7
2018-06-19T08:27:26.526Z,21.7
2018-06-19T08:28:26.397Z,21.7
2018-06-19T08:29:26.311Z,21.69
2018-06-19T08:30:26.461Z,21.7
2018-06-19T08:31:26.633Z,21.69
2018-06-19T08:32:26.407Z,21.7
2018-06-19T08:33:26.517Z,21.72
2018-06-19T08:34:26.400Z,21.69
2018-06-19T08:35:26.296Z,21.69
2018-06-19T08:36:26.815Z,21.68
2018-06-19T08:37:26.312Z,21.73
2018-06-19T08:38:26.230Z,21.7
2018-06-19T08:39:26.500Z,21.7
2018-06-19T08:40:26.288Z,21.7
2018-06-19T08:41:26.524Z,21.69
2018-06-19T08:42:26.500Z,21.7
2018-06-19T08:43:26.378Z,21.68
2018-06-19T08:44:26.481Z,21.7
2018-06-19T08:45:26.420Z,21.72
2018-06-19T08:46:26.623Z,21.69
2018-06-19T08:47:26.331Z,21.72
2018-06-19T08:48:26.569Z,21.7
2018-06-19T08:49:26.524Z,21.7
2018-06-19T08:50:26.403Z,21.7
2018-06-19T08:51:26.371Z,21.7
2018-06-19T08:52:26.342Z,21.69
2018-06-19T08:53:26.384Z,21.7
2018-06-19T08:54:26.572Z,21.7
2018-06-19T08:55:26.674Z,21.68
2018-06-19T08:56:27.023Z,21.7
2018-06-19T08:57:26.590Z,21.72
2018-06-19T08:58:26.646Z,21.67
2018-06-19T08:59:26.881Z,21.69
2018-06-19T09:00:26.373Z,21.69
2018-06-19T09:01:26.515Z,21.69
2018-06-19T09:02:26.430Z,21.7
2018-06-19T09:03:26.425Z,21.7
2018-06-19T09:04:26.741Z,21.67
2018-06-19T09:05:26.363Z,21.68
2018-06-19T09:06:26.382Z,21.7
2018-06-19T09:07:26.496Z,21.69
2018-06-19T09:08:26.289Z,21.69
2018-06-19T09:09:26.512Z,21.69
2018-06-19T09:10:26.392Z,21.68
2018-06-19T09:11:26.480Z,21.68
2018-06-19T09:12:26.643Z,21.7
2018-06-19T09:13:26.668Z,21.7
2018-06-19T09:14:26.332Z,21.68
2018-06-19T09:15:26.483Z,21.69
2018-06-19T09:16:26.253Z,21.69
2018-06-19T09:17:26.465Z,21.7
2018-06-19T09:18:26.523Z,21.68
2018-06-19T09:19:26.440Z,21.67
2018-06-19T09:20:26.891Z,21.68
2018-06-19T09:21:26.389Z,21.7
2018-06-19T09:22:26.548Z,21.68
2018-06-19T09:23:26.276Z,21.69
2018-06-19T09:24:26.385Z,21.7
2018-06-19T09:25:26.532Z,21.69
2018-06-19T09:26:26.473Z,21.69
2018-06-19T09:27:26.410Z,21.73
2018-06-19T09:28:26.426Z,21.68
2018-06-19T09:29:26.442Z,21.68
2018-06-19T09:30:26.342Z,21.68
2018-06-19T09:31:27.010Z,21.69
2018-06-19T09:32:26.437Z,21.68
2018-06-19T09:33:26.375Z,21.7
2018-06-19T09:34:26.319Z,21.69
2018-06-19T09:35:26.579Z,21.69
2018-06-19T09:36:26.488Z,21.72
2018-06-19T09:37:26.409Z,21.69
2018-06-19T09:38:26.477Z,21.69
2018-06-19T09:39:26.466Z,21.68
2018-06-19T09:40:26.597Z,21.7
2018-06-19T09:41:26.502Z,21.69
2018-06-19T09:42:26.451Z,21.72
2018-06-19T09:43:26.615Z,21.72
2018-06-19T09:44:26.462Z,21.67
2018-06-19T09:45:26.504Z,21.68
2018-06-19T09:46:26.561Z,21.7
2018-06-19T09:47:26.599Z,21.68
2018-06-19T09:48:26.520Z,21.69
2018-06-19T09:49:26.367Z,21.67
2018-06-19T09:50:26.486Z,21.7
2018-06-19T09:51:26.465Z,21.67
2018-06-19T09:52:26.957Z,21.69
2018-06-19T09:53:26.500Z,21.68
2018-06-19T09:54:26.642Z,21.68
2018-06-19T09:55:26.278Z,21.69
2018-06-19T09:56:26.350Z,21.7
2018-06-19T09:57:26.586Z,21.74
2018-06-19T09:58:26.769Z,21.76
2018-06-19T09:59:36.918Z,21.77
2018-06-19T10:00:26.472Z,21.79
2018-06-19T10:01:26.506Z,21.77
2018-06-19T10:02:26.518Z,21.8
2018-06-19T10:03:26.588Z,21.77
2018-06-19T10:04:26.436Z,21.77
2018-06-19T10:05:26.495Z,21.77
2018-06-19T10:06:26.785Z,21.8
2018-06-19T10:07:26.633Z,21.8
2018-06-19T10:08:26.473Z,21.81
2018-06-19T10:09:26.356Z,21.84
2018-06-19T10:10:26.603Z,21.84
2018-06-19T10:11:26.385Z,21.81
2018-06-19T10:12:26.485Z,21.84
2018-06-19T10:13:26.428Z,21.85
2018-06-19T10:14:26.417Z,21.87
2018-06-19T10:15:26.444Z,21.87
2018-06-19T10:16:26.324Z,21.89
2018-06-19T10:17:26.376Z,21.89
2018-06-19T10:18:26.424Z,21.91
2018-06-19T10:19:26.865Z,21.9
2018-06-19T10:20:26.435Z,21.91
2018-06-19T10:21:26.514Z,21.91
2018-06-19T10:22:26.522Z,21.92
2018-06-19T10:23:26.476Z,21.93
2018-06-19T10:24:26.424Z,21.93
2018-06-19T10:25:26.494Z,21.94
2018-06-19T10:26:26.520Z,21.95
2018-06-19T10:27:26.333Z,21.94
2018-06-19T10:28:26.583Z,21.95
2018-06-19T10:29:26.409Z,21.97
2018-06-19T10:30:26.571Z,21.97
2018-06-19T10:31:26.299Z,21.97
2018-06-19T10:32:26.360Z,21.99
2018-06-19T10:33:26.475Z,21.97
2018-06-19T10:34:26.546Z,21.97
2018-06-19T10:35:26.449Z,22.01
2018-06-19T10:36:26.360Z,21.98
2018-06-19T10:37:26.507Z,22.03
2018-06-19T10:38:26.358Z,22.03
2018-06-19T10:39:26.468Z,22.02
2018-06-19T10:40:26.433Z,22.03
2018-06-19T10:41:26.421Z,21.99
2018-06-19T10:42:26.542Z,21.99
2018-06-19T10:43:26.317Z,21.95
2018-06-19T10:44:26.525Z,21.93
2018-06-19T10:45:26.451Z,21.92
2018-06-19T10:46:26.447Z,21.9
2018-06-19T10:47:26.509Z,21.91
2018-06-19T10:48:26.444Z,21.89
2018-06-19T10:49:26.284Z,21.91
2018-06-19T10:50:26.372Z,21.91
2018-06-19T10:51:26.527Z,21.9
2018-06-19T10:52:26.688Z,21.89
2018-06-19T10:53:26.510Z,21.9
2018-06-19T10:54:26.522Z,21.89
2018-06-19T10:55:26.390Z,21.89
2018-06-19T10:56:26.549Z,21.89
2018-06-19T10:57:26.431Z,21.89
2018-06-19T10:58:26.340Z,21.87
2018-06-19T10:59:26.368Z,21.85
2018-06-19T11:00:26.514Z,21.88
2018-06-19T11:01:26.258Z,21.85
2018-06-19T11:02:26.436Z,21.87
2018-06-19T11:03:26.353Z,21.87
2018-06-19T11:04:26.318Z,21.85
2018-06-19T11:05:26.394Z,21.88
2018-06-19T11:06:26.452Z,21.85
2018-06-19T11:07:26.267Z,21.84
2018-06-19T11:08:26.282Z,21.88
2018-06-19T11:09:26.313Z,21.87
2018-06-19T11:10:26.508Z,21.83
2018-06-19T11:11:26.535Z,21.85
2018-06-19T11:12:26.525Z,21.82
2018-06-19T11:13:26.431Z,21.83
2018-06-19T11:14:26.545Z,21.83
2018-06-19T11:15:26.363Z,21.83
2018-06-19T11:16:26.278Z,21.82
2018-06-19T11:17:26.340Z,21.83
2018-06-19T11:18:26.924Z,21.82
2018-06-19T11:19:26.351Z,21.82
2018-06-19T11:20:26.382Z,21.84
2018-06-19T11:21:26.753Z,21.84
2018-06-19T11:22:26.293Z,21.82
2018-06-19T11:23:26.479Z,21.83
2018-06-19T11:24:26.368Z,21.83
2018-06-19T11:25:26.439Z,21.81
2018-06-19T11:26:26.503Z,21.83
2018-06-19T11:27:26.365Z,21.81
2018-06-19T11:28:26.461Z,21.79
2018-06-19T11:29:26.424Z,21.81
2018-06-19T11:30:26.498Z,21.82
2018-06-19T11:31:26.409Z,21.82
2018-06-19T11:32:26.531Z,21.83
2018-06-19T11:33:26.398Z,21.82
2018-06-19T11:34:26.437Z,21.79
2018-06-19T11:35:26.510Z,21.81
2018-06-19T11:36:26.520Z,21.82
2018-06-19T11:37:26.485Z,21.8
2018-06-19T11:38:26.735Z,21.81
2018-06-19T11:39:26.331Z,21.78
2018-06-19T11:40:26.558Z,21.82
2018-06-19T11:41:26.512Z,21.81
2018-06-19T11:42:26.350Z,21.8
2018-06-19T11:43:26.730Z,21.81
2018-06-19T11:44:26.294Z,21.82
2018-06-19T11:45:26.404Z,21.82
2018-06-19T11:46:26.481Z,21.82
2018-06-19T11:47:26.443Z,21.8
2018-06-19T11:48:26.347Z,21.83
2018-06-19T11:49:26.506Z,21.8
2018-06-19T11:50:26.587Z,21.8
2018-06-19T11:51:26.674Z,21.78
2018-06-19T11:52:26.409Z,21.79
2018-06-19T11:53:26.433Z,21.83
2018-06-19T11:54:26.274Z,21.79
2018-06-19T11:55:26.350Z,21.77
2018-06-19T11:56:26.282Z,21.8
2018-06-19T11:57:26.514Z,21.82
2018-06-19T11:58:26.459Z,21.79
2018-06-19T11:59:26.297Z,21.8
2018-06-19T12:00:26.339Z,21.81
2018-06-19T12:01:26.377Z,21.81
2018-06-19T12:02:26.451Z,21.8
2018-06-19T12:03:26.243Z,21.8
2018-06-19T12:04:26.324Z,21.8
2018-06-19T12:05:26.357Z,21.82
2018-06-19T12:06:26.284Z,21.8
2018-06-19T12:07:26.536Z,21.77
2018-06-19T12:08:26.556Z,21.78
2018-06-19T12:09:26.710Z,21.82
2018-06-19T12:10:26.379Z,21.8
2018-06-19T12:11:26.342Z,21.78
2018-06-19T12:12:26.507Z,21.8
2018-06-19T12:13:26.463Z,21.8
2018-06-19T12:14:26.345Z,21.82
2018-06-19T12:15:26.573Z,21.81
2018-06-19T12:16:26.547Z,21.77
2018-06-19T12:17:26.348Z,21.79
2018-06-19T12:18:26.350Z,21.79
2018-06-19T12:19:26.338Z,21.77
2018-06-19T12:20:26.492Z,21.77
2018-06-19T12:21:26.302Z,21.78
2018-06-19T12:22:26.372Z,21.77
2018-06-19T12:23:26.320Z,21.8
2018-06-19T12:24:26.320Z,21.79
2018-06-19T12:25:26.452Z,21.79
2018-06-19T12:26:26.816Z,21.78
2018-06-19T12:27:26.849Z,21.78
2018-06-19T12:28:26.417Z,21.79
2018-06-19T12:29:26.439Z,21.79
2018-06-19T12:30:26.286Z,21.79
2018-06-19T12:31:26.331Z,21.76
2018-06-19T12:32:26.361Z,21.8
2018-06-19T12:33:26.726Z,21.8
2018-06-19T12:34:26.325Z,21.78
2018-06-19T12:35:26.555Z,21.8
2018-06-19T12:36:26.686Z,21.78
2018-06-19T12:37:26.891Z,21.76
2018-06-19T12:38:26.536Z,21.8
2018-06-19T12:39:26.313Z,21.78
2018-06-19T12:40:26.315Z,21.77
2018-06-19T12:41:26.222Z,21.8
2018-06-19T12:42:26.357Z,21.8
2018-06-19T12:43:26.571Z,21.79
2018-06-19T12:44:26.389Z,21.77
2018-06-19T12:45:26.447Z,21.79
2018-06-19T12:46:26.235Z,21.77
2018-06-19T12:47:26.371Z,21.78
2018-06-19T12:48:26.319Z,21.77
2018-06-19T12:49:26.349Z,21.8
2018-06-19T12:50:26.298Z,21.78
2018-06-19T12:51:26.326Z,21.78
2018-06-19T12:52:26.455Z,21.77
2018-06-19T12:53:26.285Z,21.77
2018-06-19T12:54:26.603Z,21.8
2018-06-19T12:55:26.384Z,21.79
2018-06-19T12:56:26.597Z,21.74
2018-06-19T12:57:26.506Z,21.77
2018-06-19T12:58:26.576Z,21.77